Aeroporto :
LOGIN :

Iscrizione | Disclaimer

   EN    FR    IT 

 










Sommario :    VFR   VFR Marginale   IFR   IFR Intensivo   IFR Molto Intensivo
Visibilità : 
Base nubi : 
>= 8 km
>= 3000ft
5 / 8 km
1000 / 3000 ft
1500m / 5 km
500 / 1000 ft
800 / 1500m
200 / 500 ft
< 800m
< 200 ft
Simboli :   Temporali  Nebbia  Neve Forte  Precipitazioni Forti  Vento > 20 kt
SIGMETs :   Varie  Temporali  Ghiacco  Turbolenza  Onda orograficha  Ceneri Vulcaniche






- Altitudine del aeroporto : 163 ft
- Codice IATA : IST


LTBA - Ataturk

ULTIMO METAR :
  • 240250Z 00000KT 9999 SCT012 15/15 Q1017 NOSIG RMK RWY23 00000KT

METARs OBSOLETI :
  • 240220Z VRB01KT 9999 SCT012 15/15 Q1017 NOSIG
  • 240150Z VRB02KT 9999 SCT012 16/15 Q1017 NOSIG RMK RWY23 VRB01KT
  • 240120Z 00000KT 9999 SCT012 14/14 Q1017 NOSIG RMK RWY23 05001KT
  • 240050Z VRB01KT 9999 SCT012 15/14 Q1017 NOSIG RMK RWY23 02001KT
  • 240020Z 35001KT 9999 FEW015 13/13 Q1018 NOSIG RMK RWY23 00000KT

TAF TAF LTBA
Valido dal 24 a 00 ore il 25 a 06 ore UTC


232240Z 2400/2506 VRB02KT CAVOK
BECMG 2418/2420 SCT035



MetMap, La meteo Aeronautica in un colpo d'occhio ! - Copyright ORBIFLY Dicembre 2007 - Disclaimer

ORBIFLY MET'MAP TEAM :

Programmazione e sviluppo : Alexandra Zaïnal
Concezione : Baudouin d'Aumeries
Aiuto per la programmazione : Marc-Olivier Méhu
Supporto tecnico e logistico : Manuel Goepfert
Aiuto per la traduzione : Arnaldo La Scala

Contatto : metmap@orbifly.com




FONTI E CREDITI :

   NOAA